Floreffe, Belgium
Current Conditions -  °F | °C
As of 6:50 PM on Saturday 22 Nov 2014 (Local Time) from EBCI Reporting Station
Clear Clear  
Wind Chill: 11°   Ceiling: Unl
Heat Index: 11°   Visibility: 6mi
Dew Point:   Wind: 5mph
Humidity: 88%   Direction: 170°S
Pressure: 30.03"   Gusts: NA
Location:  50.43°N, 4.76°E
Report Text: EBCI 221750Z 17004KT 140V200 CAVOK 11/09 Q1017 NOSIG
Loading
Personal Weather Stations






























Interactive Weather Map New forecast layout! Learn more

10-Day Weather Forecast

Advertisements
Track Severe Weather on mobile